createdAt,value
2018-05-26T00:03:47.136Z,15.9
2018-05-26T00:08:46.927Z,15.8
2018-05-26T00:13:47.086Z,15.7
2018-05-26T00:18:47.073Z,15.5
2018-05-26T00:23:50.467Z,15.5
2018-05-26T00:28:50.343Z,15.6
2018-05-26T00:34:00.625Z,15.4
2018-05-26T00:39:00.449Z,15.3
2018-05-26T00:44:00.344Z,15.2
2018-05-26T00:49:00.538Z,15.1
2018-05-26T00:54:00.573Z,15.1
2018-05-26T00:59:00.508Z,15.1
2018-05-26T01:04:00.536Z,15.2
2018-05-26T01:09:01.927Z,15.3
2018-05-26T01:14:01.641Z,15.1
2018-05-26T01:19:15.083Z,15.2
2018-05-26T01:24:15.013Z,15.2
2018-05-26T01:29:14.835Z,15.2
2018-05-26T01:34:14.957Z,15
2018-05-26T01:39:15.014Z,15.2
2018-05-26T01:44:14.818Z,15.2
2018-05-26T01:49:14.969Z,15.1
2018-05-26T01:54:15.026Z,15.1
2018-05-26T01:59:15.210Z,15.1
2018-05-26T02:04:27.753Z,15
2018-05-26T02:09:27.480Z,15
2018-05-26T02:14:27.479Z,14.8
2018-05-26T02:19:27.663Z,14.8
2018-05-26T02:24:27.477Z,14.7
2018-05-26T02:29:27.633Z,14.6
2018-05-26T02:34:27.673Z,14.5
2018-05-26T02:39:27.655Z,14.3
2018-05-26T02:44:27.844Z,14.2
2018-05-26T02:49:39.885Z,14.2
2018-05-26T02:54:39.791Z,14.1
2018-05-26T02:59:39.724Z,13.9
2018-05-26T03:04:39.599Z,13.9
2018-05-26T03:09:44.115Z,13.8
2018-05-26T03:14:43.833Z,13.7
2018-05-26T03:19:43.860Z,13.7
2018-05-26T03:24:43.841Z,13.4
2018-05-26T03:29:44.031Z,13.5
2018-05-26T03:34:44.196Z,13.6
2018-05-26T03:39:43.852Z,13.5
2018-05-26T03:44:47.050Z,13.5
2018-05-26T03:49:46.721Z,13.4
2018-05-26T03:54:59.125Z,13.5
2018-05-26T03:59:58.975Z,13.4
2018-05-26T04:04:59.009Z,13.3
2018-05-26T04:09:59.050Z,13.4
2018-05-26T04:14:58.860Z,13.5
2018-05-26T04:19:58.867Z,13.5
2018-05-26T04:24:59.050Z,13.5
2018-05-26T04:29:59.407Z,13.6
2018-05-26T04:34:59.321Z,13.6
2018-05-26T04:40:12.562Z,13.6
2018-05-26T04:45:12.303Z,13.8
2018-05-26T04:50:12.419Z,13.9
2018-05-26T04:55:12.478Z,13.9
2018-05-26T05:00:12.494Z,14
2018-05-26T05:05:12.511Z,13.9
2018-05-26T05:10:12.678Z,14.1
2018-05-26T05:15:16.546Z,14.2
2018-05-26T05:20:16.246Z,14.3
2018-05-26T05:25:29.049Z,14.4
2018-05-26T05:30:28.996Z,14.4
2018-05-26T05:35:28.771Z,14.6
2018-05-26T05:40:29.021Z,14.7
2018-05-26T05:45:29.179Z,14.8
2018-05-26T05:50:29.021Z,14.9
2018-05-26T05:55:28.820Z,15
2018-05-26T06:00:30.109Z,15.1
2018-05-26T06:05:30.048Z,15.2
2018-05-26T06:10:42.377Z,15.3
2018-05-26T06:15:42.104Z,15.3
2018-05-26T06:20:42.344Z,15.5
2018-05-26T06:25:42.257Z,15.6
2018-05-26T06:30:42.120Z,15.7
2018-05-26T06:35:42.332Z,15.8
2018-05-26T06:40:42.257Z,15.9
2018-05-26T06:45:43.846Z,16
2018-05-26T06:50:43.799Z,16.1
2018-05-26T06:55:56.501Z,16.1
2018-05-26T07:00:56.429Z,16.3
2018-05-26T07:05:56.360Z,17.1
2018-05-26T07:10:56.345Z,17.2
2018-05-26T07:15:56.739Z,17.3
2018-05-26T07:20:56.484Z,17.4
2018-05-26T07:25:56.571Z,17.8
2018-05-26T07:30:58.373Z,18
2018-05-26T07:35:58.107Z,18.3
2018-05-26T07:41:11.000Z,18.5
2018-05-26T07:46:10.762Z,18.8
2018-05-26T07:51:10.684Z,19.6
2018-05-26T07:56:10.941Z,19.9
2018-05-26T08:01:10.634Z,19.9
2018-05-26T08:06:10.698Z,20.4
2018-05-26T08:11:10.578Z,20.4
2018-05-26T08:16:12.131Z,20.4
2018-05-26T08:21:12.008Z,20.4
2018-05-26T08:26:25.177Z,20.6
2018-05-26T08:31:25.101Z,20.7
2018-05-26T08:36:24.848Z,21
2018-05-26T08:41:25.163Z,21
2018-05-26T08:46:25.091Z,21.4
2018-05-26T08:51:24.977Z,21.7
2018-05-26T08:56:25.079Z,21.9
2018-05-26T09:01:27.215Z,22.1
2018-05-26T09:06:26.954Z,21.9
2018-05-26T09:11:39.829Z,22.6
2018-05-26T09:16:40.751Z,22.8
2018-05-26T09:21:40.796Z,22.9
2018-05-26T09:26:40.038Z,22.8
2018-05-26T09:31:39.942Z,22.5
2018-05-26T09:36:39.764Z,22.7
2018-05-26T09:41:39.834Z,22.5
2018-05-26T09:46:43.562Z,22.7
2018-05-26T09:51:43.676Z,23.3
2018-05-26T09:56:54.362Z,23.3
2018-05-26T10:01:54.199Z,23.4
2018-05-26T10:06:54.209Z,23.7
2018-05-26T10:11:54.093Z,23.5
2018-05-26T10:16:54.196Z,23.8
2018-05-26T10:21:54.760Z,24.1
2018-05-26T10:26:54.660Z,24.1
2018-05-26T10:31:54.421Z,24
2018-05-26T10:36:54.478Z,24.1
2018-05-26T10:41:54.671Z,24.1
2018-05-26T10:46:54.673Z,24.5
2018-05-26T10:51:54.643Z,24.6
2018-05-26T10:56:55.368Z,24.4
2018-05-26T11:01:55.245Z,24.9
2018-05-26T11:07:10.093Z,24.9
2018-05-26T11:12:09.834Z,25.1
2018-05-26T11:17:09.855Z,25.2
2018-05-26T11:22:10.075Z,25
2018-05-26T11:27:09.904Z,25.4
2018-05-26T11:32:09.867Z,25.7
2018-05-26T11:37:09.906Z,25.6
2018-05-26T11:42:09.916Z,25.5
2018-05-26T11:47:10.136Z,25.8
2018-05-26T11:52:09.913Z,26
2018-05-26T11:57:09.924Z,26
2018-05-26T12:02:10.244Z,26.2
2018-05-26T12:07:12.258Z,26.2
2018-05-26T12:12:12.187Z,26.2
2018-05-26T12:17:25.061Z,26.6
2018-05-26T12:22:24.944Z,26.4
2018-05-26T12:27:24.998Z,26.3
2018-05-26T12:32:24.766Z,26.6
2018-05-26T12:37:24.758Z,26.5
2018-05-26T12:42:24.976Z,26.7
2018-05-26T12:47:25.965Z,26.8
2018-05-26T12:52:24.963Z,26.9
2018-05-26T12:57:24.981Z,26.8
2018-05-26T13:02:38.836Z,26.9
2018-05-26T13:07:38.633Z,27.2
2018-05-26T13:12:38.577Z,26.9
2018-05-26T13:17:39.369Z,26.9
2018-05-26T13:22:38.785Z,27
2018-05-26T13:27:40.008Z,26.9
2018-05-26T13:32:38.734Z,27.3
2018-05-26T13:37:38.718Z,27.2
2018-05-26T13:42:38.718Z,27.1
2018-05-26T13:47:38.943Z,27.2
2018-05-26T13:52:38.747Z,26.9
2018-05-26T13:57:38.895Z,27.2
2018-05-26T14:02:39.951Z,27.2
2018-05-26T14:07:39.554Z,27.1
2018-05-26T14:12:51.959Z,26.9
2018-05-26T14:17:51.825Z,27.3
2018-05-26T14:22:51.840Z,27.1
2018-05-26T14:27:51.675Z,27.3
2018-05-26T14:32:51.824Z,27.2
2018-05-26T14:37:51.862Z,27.2
2018-05-26T14:42:51.640Z,27.2
2018-05-26T14:47:52.471Z,27
2018-05-26T14:52:52.374Z,26.9
2018-05-26T14:58:06.140Z,26.7
2018-05-26T15:03:04.868Z,26.6
2018-05-26T15:08:04.888Z,26.3
2018-05-26T15:13:05.000Z,26.4
2018-05-26T15:18:04.870Z,26.5
2018-05-26T15:23:04.887Z,26.3
2018-05-26T15:28:04.902Z,26.4
2018-05-26T15:33:05.174Z,26.1
2018-05-26T15:38:05.039Z,26.1
2018-05-26T15:43:06.103Z,26
2018-05-26T15:48:04.905Z,26.3
2018-05-26T15:53:04.910Z,26.2
2018-05-26T15:58:07.675Z,26
2018-05-26T16:03:07.615Z,25.9
2018-05-26T16:08:20.671Z,25.8
2018-05-26T16:13:20.399Z,25.6
2018-05-26T16:18:20.286Z,25.6
2018-05-26T16:23:20.554Z,25.6
2018-05-26T16:28:20.369Z,25.5
2018-05-26T16:33:20.413Z,25.3
2018-05-26T16:38:20.343Z,25.1
2018-05-26T16:43:20.817Z,25.1
2018-05-26T16:48:20.828Z,24.9
2018-05-26T16:53:33.486Z,24.8
2018-05-26T16:58:33.365Z,24.7
2018-05-26T17:03:33.401Z,24.7
2018-05-26T17:08:33.188Z,24.7
2018-05-26T17:13:33.388Z,24.6
2018-05-26T17:18:33.194Z,24.7
2018-05-26T17:23:33.310Z,24.6
2018-05-26T17:28:33.361Z,24.4
2018-05-26T17:33:33.454Z,24.2
2018-05-26T17:38:33.497Z,24.1
2018-05-26T17:43:33.359Z,24
2018-05-26T17:48:33.207Z,23.8
2018-05-26T17:53:37.991Z,23.7
2018-05-26T17:58:37.680Z,23.6
2018-05-26T18:03:48.223Z,23.5
2018-05-26T18:08:49.612Z,23.5
2018-05-26T18:13:48.125Z,23.4
2018-05-26T18:18:47.883Z,23.2
2018-05-26T18:23:47.941Z,23.1
2018-05-26T18:28:49.129Z,22.9
2018-05-26T18:33:47.939Z,22.9
2018-05-26T18:38:50.677Z,22.6
2018-05-26T18:43:50.181Z,22.5
2018-05-26T18:49:02.800Z,22.4
2018-05-26T18:54:02.736Z,22.2
2018-05-26T18:59:02.489Z,22.1
2018-05-26T19:04:02.549Z,22
2018-05-26T19:09:02.713Z,21.9
2018-05-26T19:14:03.812Z,21.7
2018-05-26T19:19:03.540Z,21.6
2018-05-26T19:24:03.652Z,21.5
2018-05-26T19:29:03.710Z,21.4
2018-05-26T19:34:04.157Z,21.3
2018-05-26T19:39:03.754Z,21
2018-05-26T19:44:03.726Z,21
2018-05-26T19:49:05.412Z,20.8
2018-05-26T19:54:05.295Z,20.7
2018-05-26T19:59:19.464Z,20.7
2018-05-26T20:04:19.315Z,20.6
2018-05-26T20:09:19.281Z,20.5
2018-05-26T20:14:19.343Z,20.3
2018-05-26T20:19:19.383Z,20.2
2018-05-26T20:24:20.482Z,20.1
2018-05-26T20:29:19.341Z,20
2018-05-26T20:34:20.407Z,19.9
2018-05-26T20:49:32.889Z,19.3
2018-05-26T20:54:33.162Z,19.4
2018-05-26T20:59:32.920Z,19.3
2018-05-26T21:04:32.938Z,19.2
2018-05-26T21:09:32.950Z,19.2
2018-05-26T21:14:32.954Z,18.9
2018-05-26T21:19:33.311Z,18.9
2018-05-26T21:24:34.053Z,19
2018-05-26T21:29:45.346Z,18.5
2018-05-26T21:34:45.286Z,18.5
2018-05-26T21:39:45.217Z,18.5
2018-05-26T21:44:45.265Z,18.3
2018-05-26T21:49:45.106Z,18.3
2018-05-26T21:54:46.070Z,18.3
2018-05-26T21:59:46.085Z,18.1
2018-05-26T22:04:45.080Z,18
2018-05-26T22:09:45.074Z,18
2018-05-26T22:15:00.027Z,17.8
2018-05-26T22:19:59.751Z,17.6
2018-05-26T22:24:59.974Z,17.7
2018-05-26T22:30:00.381Z,17.5
2018-05-26T22:34:59.767Z,17.5
2018-05-26T22:39:59.761Z,17.4
2018-05-26T22:44:59.772Z,17.4
2018-05-26T22:50:04.587Z,17.2
2018-05-26T22:55:05.299Z,17.1
2018-05-26T23:00:13.975Z,17.1
2018-05-26T23:05:13.757Z,16.9
2018-05-26T23:10:13.560Z,17
2018-05-26T23:15:13.572Z,16.9
2018-05-26T23:20:13.754Z,16.8
2018-05-26T23:25:13.930Z,16.8
2018-05-26T23:30:13.514Z,16.7
2018-05-26T23:35:15.283Z,16.7
2018-05-26T23:40:15.224Z,16.5
2018-05-26T23:45:28.947Z,16.5
2018-05-26T23:50:28.905Z,16.5
2018-05-26T23:55:28.838Z,16.5
